sensor_id;sensor_type;location;lat;lon;timestamp;P1;durP1;ratioP1;P2;durP2;ratioP2
2404;SDS011;1213;43.206;27.922;2023-05-29T00:02:05;7.77;;;6.10;;
2404;SDS011;1213;43.206;27.922;2023-05-29T00:04:30;6.57;;;5.97;;
2404;SDS011;1213;43.206;27.922;2023-05-29T00:06:56;7.50;;;5.83;;
2404;SDS011;1213;43.206;27.922;2023-05-29T00:09:21;5.80;;;5.20;;
2404;SDS011;1213;43.206;27.922;2023-05-29T00:11:46;9.50;;;6.00;;
2404;SDS011;1213;43.206;27.922;2023-05-29T00:14:16;7.23;;;5.33;;
2404;SDS011;1213;43.206;27.922;2023-05-29T00:16:44;6.20;;;5.00;;
2404;SDS011;1213;43.206;27.922;2023-05-29T00:19:09;7.73;;;5.43;;
2404;SDS011;1213;43.206;27.922;2023-05-29T00:21:34;8.60;;;6.00;;
2404;SDS011;1213;43.206;27.922;2023-05-29T00:24:00;6.50;;;5.90;;
2404;SDS011;1213;43.206;27.922;2023-05-29T00:26:25;6.53;;;5.83;;
2404;SDS011;1213;43.206;27.922;2023-05-29T00:28:51;6.80;;;5.83;;
2404;SDS011;1213;43.206;27.922;2023-05-29T00:31:16;7.20;;;5.70;;
2404;SDS011;1213;43.206;27.922;2023-05-29T00:33:41;10.00;;;6.70;;
2404;SDS011;1213;43.206;27.922;2023-05-29T00:36:07;7.27;;;6.57;;
2404;SDS011;1213;43.206;27.922;2023-05-29T00:38:32;7.67;;;6.77;;
2404;SDS011;1213;43.206;27.922;2023-05-29T00:40:58;12.43;;;7.40;;
2404;SDS011;1213;43.206;27.922;2023-05-29T00:43:24;11.50;;;6.73;;
2404;SDS011;1213;43.206;27.922;2023-05-29T00:45:49;9.13;;;6.50;;
2404;SDS011;1213;43.206;27.922;2023-05-29T00:48:15;9.53;;;6.77;;
2404;SDS011;1213;43.206;27.922;2023-05-29T00:50:40;7.87;;;7.00;;
2404;SDS011;1213;43.206;27.922;2023-05-29T00:53:05;6.67;;;5.93;;
2404;SDS011;1213;43.206;27.922;2023-05-29T00:55:32;10.10;;;7.73;;
2404;SDS011;1213;43.206;27.922;2023-05-29T00:57:58;10.37;;;7.83;;
2404;SDS011;1213;43.206;27.922;2023-05-29T01:00:24;9.57;;;7.07;;
2404;SDS011;1213;43.206;27.922;2023-05-29T01:02:49;11.43;;;6.73;;
2404;SDS011;1213;43.206;27.922;2023-05-29T01:05:17;12.20;;;7.93;;
2404;SDS011;1213;43.206;27.922;2023-05-29T01:07:44;9.97;;;7.00;;
2404;SDS011;1213;43.206;27.922;2023-05-29T01:10:09;12.03;;;7.63;;
2404;SDS011;1213;43.206;27.922;2023-05-29T01:12:40;10.17;;;8.40;;
2404;SDS011;1213;43.206;27.922;2023-05-29T01:17:50;10.03;;;8.33;;
2404;SDS011;1213;43.206;27.922;2023-05-29T01:23:20;18.30;;;9.07;;
2404;SDS011;1213;43.206;27.922;2023-05-29T01:28:26;13.10;;;8.50;;
2404;SDS011;1213;43.206;27.922;2023-05-29T01:30:53;14.43;;;9.33;;
2404;SDS011;1213;43.206;27.922;2023-05-29T01:33:19;12.97;;;9.57;;
2404;SDS011;1213;43.206;27.922;2023-05-29T01:35:44;12.93;;;9.50;;
2404;SDS011;1213;43.206;27.922;2023-05-29T01:38:09;13.10;;;9.93;;
2404;SDS011;1213;43.206;27.922;2023-05-29T01:40:35;15.30;;;9.63;;
2404;SDS011;1213;43.206;27.922;2023-05-29T01:43:01;13.90;;;10.30;;
2404;SDS011;1213;43.206;27.922;2023-05-29T01:45:26;16.37;;;9.77;;
2404;SDS011;1213;43.206;27.922;2023-05-29T01:47:52;15.60;;;10.70;;
2404;SDS011;1213;43.206;27.922;2023-05-29T01:50:17;19.37;;;10.77;;
2404;SDS011;1213;43.206;27.922;2023-05-29T01:52:43;14.30;;;9.20;;
2404;SDS011;1213;43.206;27.922;2023-05-29T01:55:08;17.17;;;11.43;;
2404;SDS011;1213;43.206;27.922;2023-05-29T01:57:34;13.53;;;10.10;;
2404;SDS011;1213;43.206;27.922;2023-05-29T02:00:00;18.57;;;11.87;;
2404;SDS011;1213;43.206;27.922;2023-05-29T02:02:25;14.27;;;10.27;;
2404;SDS011;1213;43.206;27.922;2023-05-29T02:04:51;16.67;;;11.40;;
2404;SDS011;1213;43.206;27.922;2023-05-29T02:07:17;16.77;;;10.47;;
2404;SDS011;1213;43.206;27.922;2023-05-29T02:09:42;15.23;;;10.77;;
2404;SDS011;1213;43.206;27.922;2023-05-29T02:12:07;18.80;;;10.20;;
2404;SDS011;1213;43.206;27.922;2023-05-29T02:14:33;16.50;;;11.00;;
2404;SDS011;1213;43.206;27.922;2023-05-29T02:16:58;16.80;;;11.50;;
2404;SDS011;1213;43.206;27.922;2023-05-29T02:19:23;18.13;;;11.77;;
2404;SDS011;1213;43.206;27.922;2023-05-29T02:21:50;16.60;;;11.60;;
2404;SDS011;1213;43.206;27.922;2023-05-29T02:24:15;18.80;;;12.80;;
2404;SDS011;1213;43.206;27.922;2023-05-29T02:26:41;18.57;;;11.37;;
2404;SDS011;1213;43.206;27.922;2023-05-29T02:29:07;30.73;;;13.47;;
2404;SDS011;1213;43.206;27.922;2023-05-29T02:31:32;20.77;;;12.33;;
2404;SDS011;1213;43.206;27.922;2023-05-29T02:33:57;12.73;;;10.47;;
2404;SDS011;1213;43.206;27.922;2023-05-29T02:36:23;14.30;;;11.20;;
2404;SDS011;1213;43.206;27.922;2023-05-29T02:38:48;18.60;;;11.27;;
2404;SDS011;1213;43.206;27.922;2023-05-29T02:41:13;14.77;;;10.10;;
2404;SDS011;1213;43.206;27.922;2023-05-29T02:43:38;18.03;;;11.30;;
2404;SDS011;1213;43.206;27.922;2023-05-29T02:46:04;11.20;;;9.50;;
2404;SDS011;1213;43.206;27.922;2023-05-29T02:48:29;13.13;;;9.63;;
2404;SDS011;1213;43.206;27.922;2023-05-29T02:50:54;20.60;;;9.87;;
2404;SDS011;1213;43.206;27.922;2023-05-29T02:53:20;10.83;;;9.10;;
2404;SDS011;1213;43.206;27.922;2023-05-29T02:55:45;14.47;;;10.00;;
2404;SDS011;1213;43.206;27.922;2023-05-29T02:58:11;12.83;;;10.80;;
2404;SDS011;1213;43.206;27.922;2023-05-29T03:00:37;13.97;;;10.20;;
2404;SDS011;1213;43.206;27.922;2023-05-29T03:03:02;15.37;;;9.40;;
2404;SDS011;1213;43.206;27.922;2023-05-29T03:05:28;13.00;;;9.90;;
2404;SDS011;1213;43.206;27.922;2023-05-29T03:07:53;13.60;;;9.67;;
2404;SDS011;1213;43.206;27.922;2023-05-29T03:10:18;17.53;;;9.13;;
2404;SDS011;1213;43.206;27.922;2023-05-29T03:12:44;18.17;;;9.40;;
2404;SDS011;1213;43.206;27.922;2023-05-29T03:15:09;13.70;;;9.93;;
2404;SDS011;1213;43.206;27.922;2023-05-29T03:17:35;11.20;;;8.97;;
2404;SDS011;1213;43.206;27.922;2023-05-29T03:20:03;12.50;;;9.70;;
2404;SDS011;1213;43.206;27.922;2023-05-29T03:22:31;12.90;;;8.80;;
2404;SDS011;1213;43.206;27.922;2023-05-29T03:24:56;11.80;;;9.17;;
2404;SDS011;1213;43.206;27.922;2023-05-29T03:27:21;9.63;;;8.63;;
2404;SDS011;1213;43.206;27.922;2023-05-29T03:29:46;11.77;;;9.33;;
2404;SDS011;1213;43.206;27.922;2023-05-29T03:32:12;9.37;;;7.30;;
2404;SDS011;1213;43.206;27.922;2023-05-29T03:34:37;10.03;;;8.37;;
2404;SDS011;1213;43.206;27.922;2023-05-29T03:37:02;9.57;;;7.50;;
2404;SDS011;1213;43.206;27.922;2023-05-29T03:39:28;13.30;;;8.80;;
2404;SDS011;1213;43.206;27.922;2023-05-29T03:41:53;14.00;;;8.67;;
2404;SDS011;1213;43.206;27.922;2023-05-29T03:44:18;13.63;;;9.10;;
2404;SDS011;1213;43.206;27.922;2023-05-29T03:46:44;9.67;;;8.03;;
2404;SDS011;1213;43.206;27.922;2023-05-29T03:49:09;12.53;;;8.13;;
2404;SDS011;1213;43.206;27.922;2023-05-29T03:51:34;13.33;;;8.90;;
2404;SDS011;1213;43.206;27.922;2023-05-29T03:54:01;12.53;;;9.60;;
2404;SDS011;1213;43.206;27.922;2023-05-29T03:56:26;10.60;;;7.53;;
2404;SDS011;1213;43.206;27.922;2023-05-29T03:58:51;11.80;;;8.87;;
2404;SDS011;1213;43.206;27.922;2023-05-29T04:01:17;12.87;;;8.27;;
2404;SDS011;1213;43.206;27.922;2023-05-29T04:03:42;13.93;;;8.10;;
2404;SDS011;1213;43.206;27.922;2023-05-29T04:06:08;11.03;;;7.40;;
2404;SDS011;1213;43.206;27.922;2023-05-29T04:08:34;14.33;;;7.80;;
2404;SDS011;1213;43.206;27.922;2023-05-29T04:10:59;10.67;;;8.20;;
2404;SDS011;1213;43.206;27.922;2023-05-29T04:13:24;13.60;;;8.30;;
2404;SDS011;1213;43.206;27.922;2023-05-29T04:15:50;10.77;;;6.70;;
2404;SDS011;1213;43.206;27.922;2023-05-29T04:18:18;14.03;;;10.60;;
2404;SDS011;1213;43.206;27.922;2023-05-29T04:20:44;14.43;;;10.17;;
2404;SDS011;1213;43.206;27.922;2023-05-29T04:23:12;10.83;;;7.37;;
2404;SDS011;1213;43.206;27.922;2023-05-29T04:25:37;10.30;;;7.90;;
2404;SDS011;1213;43.206;27.922;2023-05-29T04:28:02;13.70;;;8.27;;
2404;SDS011;1213;43.206;27.922;2023-05-29T04:30:28;12.70;;;8.40;;
2404;SDS011;1213;43.206;27.922;2023-05-29T04:32:53;17.10;;;8.40;;
2404;SDS011;1213;43.206;27.922;2023-05-29T04:35:19;12.30;;;8.77;;
2404;SDS011;1213;43.206;27.922;2023-05-29T04:37:44;10.67;;;8.50;;
2404;SDS011;1213;43.206;27.922;2023-05-29T04:40:11;10.97;;;8.53;;
2404;SDS011;1213;43.206;27.922;2023-05-29T04:42:37;12.80;;;9.10;;
2404;SDS011;1213;43.206;27.922;2023-05-29T04:45:03;12.03;;;9.33;;
2404;SDS011;1213;43.206;27.922;2023-05-29T04:47:32;12.67;;;9.10;;
2404;SDS011;1213;43.206;27.922;2023-05-29T04:50:01;15.47;;;10.37;;
2404;SDS011;1213;43.206;27.922;2023-05-29T04:52:26;15.30;;;10.13;;
2404;SDS011;1213;43.206;27.922;2023-05-29T04:54:51;14.90;;;9.37;;
2404;SDS011;1213;43.206;27.922;2023-05-29T04:57:17;15.67;;;9.93;;
2404;SDS011;1213;43.206;27.922;2023-05-29T04:59:42;11.13;;;8.20;;
2404;SDS011;1213;43.206;27.922;2023-05-29T05:02:07;11.50;;;9.30;;
2404;SDS011;1213;43.206;27.922;2023-05-29T05:04:33;9.47;;;8.00;;
2404;SDS011;1213;43.206;27.922;2023-05-29T05:06:58;9.87;;;8.87;;
2404;SDS011;1213;43.206;27.922;2023-05-29T05:09:23;12.00;;;8.87;;
2404;SDS011;1213;43.206;27.922;2023-05-29T05:11:49;11.23;;;8.60;;
2404;SDS011;1213;43.206;27.922;2023-05-29T05:14:14;14.90;;;8.90;;
2404;SDS011;1213;43.206;27.922;2023-05-29T05:16:39;12.47;;;8.33;;
2404;SDS011;1213;43.206;27.922;2023-05-29T05:19:04;12.53;;;9.20;;
2404;SDS011;1213;43.206;27.922;2023-05-29T05:21:30;15.50;;;10.83;;
2404;SDS011;1213;43.206;27.922;2023-05-29T05:23:56;13.37;;;9.50;;
2404;SDS011;1213;43.206;27.922;2023-05-29T05:26:22;13.27;;;9.17;;
2404;SDS011;1213;43.206;27.922;2023-05-29T05:28:48;11.40;;;7.57;;
2404;SDS011;1213;43.206;27.922;2023-05-29T05:31:13;14.00;;;10.03;;
2404;SDS011;1213;43.206;27.922;2023-05-29T05:33:38;16.73;;;10.77;;
2404;SDS011;1213;43.206;27.922;2023-05-29T05:36:03;11.67;;;8.80;;
2404;SDS011;1213;43.206;27.922;2023-05-29T05:38:29;11.37;;;9.07;;
2404;SDS011;1213;43.206;27.922;2023-05-29T05:40:54;12.50;;;8.40;;
2404;SDS011;1213;43.206;27.922;2023-05-29T05:43:21;9.07;;;8.17;;
2404;SDS011;1213;43.206;27.922;2023-05-29T05:45:46;15.77;;;9.40;;
2404;SDS011;1213;43.206;27.922;2023-05-29T05:48:11;14.47;;;8.70;;
2404;SDS011;1213;43.206;27.922;2023-05-29T05:50:37;17.33;;;9.67;;
2404;SDS011;1213;43.206;27.922;2023-05-29T05:53:02;11.13;;;8.83;;
2404;SDS011;1213;43.206;27.922;2023-05-29T05:55:27;11.30;;;8.07;;
2404;SDS011;1213;43.206;27.922;2023-05-29T05:57:53;13.60;;;8.60;;
2404;SDS011;1213;43.206;27.922;2023-05-29T06:00:18;16.27;;;8.73;;
2404;SDS011;1213;43.206;27.922;2023-05-29T06:02:43;13.80;;;9.17;;
2404;SDS011;1213;43.206;27.922;2023-05-29T06:05:10;12.50;;;8.90;;
2404;SDS011;1213;43.206;27.922;2023-05-29T06:07:36;12.70;;;8.50;;
2404;SDS011;1213;43.206;27.922;2023-05-29T06:10:02;11.80;;;8.87;;
2404;SDS011;1213;43.206;27.922;2023-05-29T06:12:27;10.27;;;8.50;;
2404;SDS011;1213;43.206;27.922;2023-05-29T06:14:52;11.23;;;8.80;;
2404;SDS011;1213;43.206;27.922;2023-05-29T06:17:18;9.60;;;8.50;;
2404;SDS011;1213;43.206;27.922;2023-05-29T06:19:43;12.17;;;8.33;;
2404;SDS011;1213;43.206;27.922;2023-05-29T06:22:08;11.87;;;10.00;;
2404;SDS011;1213;43.206;27.922;2023-05-29T06:24:34;13.53;;;9.27;;
2404;SDS011;1213;43.206;27.922;2023-05-29T06:26:59;13.00;;;9.60;;
2404;SDS011;1213;43.206;27.922;2023-05-29T06:29:24;11.50;;;8.93;;
2404;SDS011;1213;43.206;27.922;2023-05-29T06:31:50;15.93;;;11.20;;
2404;SDS011;1213;43.206;27.922;2023-05-29T06:34:15;16.90;;;12.20;;
2404;SDS011;1213;43.206;27.922;2023-05-29T06:36:40;21.53;;;11.37;;
2404;SDS011;1213;43.206;27.922;2023-05-29T06:39:07;12.63;;;10.87;;
2404;SDS011;1213;43.206;27.922;2023-05-29T06:41:32;15.73;;;10.50;;
2404;SDS011;1213;43.206;27.922;2023-05-29T06:43:57;14.30;;;9.93;;
2404;SDS011;1213;43.206;27.922;2023-05-29T06:46:22;13.37;;;9.03;;
2404;SDS011;1213;43.206;27.922;2023-05-29T06:48:48;16.13;;;10.90;;
2404;SDS011;1213;43.206;27.922;2023-05-29T06:51:13;14.00;;;10.57;;
2404;SDS011;1213;43.206;27.922;2023-05-29T06:53:38;23.50;;;14.00;;
2404;SDS011;1213;43.206;27.922;2023-05-29T06:56:04;16.60;;;12.10;;
2404;SDS011;1213;43.206;27.922;2023-05-29T06:58:30;19.07;;;13.07;;
2404;SDS011;1213;43.206;27.922;2023-05-29T07:00:56;19.90;;;12.03;;
2404;SDS011;1213;43.206;27.922;2023-05-29T07:03:21;22.70;;;12.17;;
2404;SDS011;1213;43.206;27.922;2023-05-29T07:05:46;20.67;;;13.43;;
2404;SDS011;1213;43.206;27.922;2023-05-29T07:08:12;20.30;;;13.17;;
2404;SDS011;1213;43.206;27.922;2023-05-29T07:10:37;19.57;;;12.30;;
2404;SDS011;1213;43.206;27.922;2023-05-29T07:13:02;20.50;;;13.00;;
2404;SDS011;1213;43.206;27.922;2023-05-29T07:15:27;19.27;;;9.90;;
2404;SDS011;1213;43.206;27.922;2023-05-29T07:17:53;19.80;;;6.53;;
2404;SDS011;1213;43.206;27.922;2023-05-29T07:20:18;12.67;;;6.20;;
2404;SDS011;1213;43.206;27.922;2023-05-29T07:22:45;11.90;;;4.90;;
2404;SDS011;1213;43.206;27.922;2023-05-29T07:25:10;10.10;;;5.40;;
2404;SDS011;1213;43.206;27.922;2023-05-29T07:27:35;8.97;;;4.93;;
2404;SDS011;1213;43.206;27.922;2023-05-29T07:30:01;13.77;;;6.50;;
2404;SDS011;1213;43.206;27.922;2023-05-29T07:32:26;10.97;;;6.47;;
2404;SDS011;1213;43.206;27.922;2023-05-29T07:34:51;13.40;;;5.53;;
2404;SDS011;1213;43.206;27.922;2023-05-29T07:37:17;12.87;;;6.00;;
2404;SDS011;1213;43.206;27.922;2023-05-29T07:39:44;11.57;;;7.33;;
2404;SDS011;1213;43.206;27.922;2023-05-29T07:42:09;22.30;;;11.70;;
2404;SDS011;1213;43.206;27.922;2023-05-29T07:44:34;13.87;;;7.43;;
2404;SDS011;1213;43.206;27.922;2023-05-29T07:47:00;12.03;;;5.70;;
2404;SDS011;1213;43.206;27.922;2023-05-29T07:49:25;11.57;;;6.67;;
2404;SDS011;1213;43.206;27.922;2023-05-29T07:51:50;16.10;;;8.00;;
2404;SDS011;1213;43.206;27.922;2023-05-29T07:54:16;14.17;;;6.53;;
2404;SDS011;1213;43.206;27.922;2023-05-29T07:56:43;12.00;;;8.20;;
2404;SDS011;1213;43.206;27.922;2023-05-29T07:59:08;15.70;;;6.03;;
2404;SDS011;1213;43.206;27.922;2023-05-29T08:01:33;10.80;;;6.10;;
2404;SDS011;1213;43.206;27.922;2023-05-29T08:03:59;15.53;;;5.47;;
2404;SDS011;1213;43.206;27.922;2023-05-29T08:06:24;11.57;;;5.67;;
2404;SDS011;1213;43.206;27.922;2023-05-29T08:08:50;15.50;;;7.50;;
2404;SDS011;1213;43.206;27.922;2023-05-29T08:11:17;18.30;;;6.57;;
2404;SDS011;1213;43.206;27.922;2023-05-29T08:13:42;21.03;;;7.00;;
2404;SDS011;1213;43.206;27.922;2023-05-29T08:16:07;22.40;;;9.50;;
2404;SDS011;1213;43.206;27.922;2023-05-29T08:18:32;20.87;;;8.70;;
2404;SDS011;1213;43.206;27.922;2023-05-29T08:20:58;31.47;;;9.77;;
2404;SDS011;1213;43.206;27.922;2023-05-29T08:23:23;29.30;;;9.20;;
2404;SDS011;1213;43.206;27.922;2023-05-29T08:25:49;115.20;;;25.97;;
2404;SDS011;1213;43.206;27.922;2023-05-29T08:28:14;47.97;;;13.80;;
2404;SDS011;1213;43.206;27.922;2023-05-29T08:30:40;25.00;;;10.13;;
2404;SDS011;1213;43.206;27.922;2023-05-29T08:33:05;17.70;;;8.93;;
2404;SDS011;1213;43.206;27.922;2023-05-29T08:35:30;13.20;;;8.30;;
2404;SDS011;1213;43.206;27.922;2023-05-29T08:37:56;17.13;;;8.73;;
2404;SDS011;1213;43.206;27.922;2023-05-29T08:40:21;16.33;;;9.93;;
2404;SDS011;1213;43.206;27.922;2023-05-29T08:42:47;31.90;;;12.33;;
2404;SDS011;1213;43.206;27.922;2023-05-29T08:45:15;27.87;;;10.80;;
2404;SDS011;1213;43.206;27.922;2023-05-29T08:47:43;16.87;;;9.13;;
2404;SDS011;1213;43.206;27.922;2023-05-29T08:50:09;17.50;;;10.23;;
2404;SDS011;1213;43.206;27.922;2023-05-29T08:52:35;21.67;;;8.97;;
2404;SDS011;1213;43.206;27.922;2023-05-29T08:55:01;13.33;;;8.83;;
2404;SDS011;1213;43.206;27.922;2023-05-29T08:57:27;13.33;;;9.37;;
2404;SDS011;1213;43.206;27.922;2023-05-29T08:59:53;16.47;;;9.73;;
2404;SDS011;1213;43.206;27.922;2023-05-29T09:02:18;13.47;;;9.87;;
2404;SDS011;1213;43.206;27.922;2023-05-29T09:04:45;14.90;;;9.83;;
2404;SDS011;1213;43.206;27.922;2023-05-29T09:07:12;16.53;;;8.93;;
2404;SDS011;1213;43.206;27.922;2023-05-29T09:09:37;11.53;;;9.13;;
2404;SDS011;1213;43.206;27.922;2023-05-29T09:12:03;13.40;;;9.90;;
2404;SDS011;1213;43.206;27.922;2023-05-29T09:14:35;15.63;;;9.50;;
2404;SDS011;1213;43.206;27.922;2023-05-29T09:17:01;20.33;;;10.17;;
2404;SDS011;1213;43.206;27.922;2023-05-29T09:19:28;12.00;;;9.30;;
2404;SDS011;1213;43.206;27.922;2023-05-29T09:21:59;12.17;;;8.60;;
2404;SDS011;1213;43.206;27.922;2023-05-29T09:24:25;11.13;;;7.77;;
2404;SDS011;1213;43.206;27.922;2023-05-29T09:26:52;12.83;;;8.77;;
2404;SDS011;1213;43.206;27.922;2023-05-29T09:29:17;10.43;;;7.10;;
2404;SDS011;1213;43.206;27.922;2023-05-29T09:31:45;12.33;;;8.97;;
2404;SDS011;1213;43.206;27.922;2023-05-29T09:34:11;17.43;;;8.83;;
2404;SDS011;1213;43.206;27.922;2023-05-29T09:36:37;11.37;;;8.80;;
2404;SDS011;1213;43.206;27.922;2023-05-29T09:39:03;9.73;;;7.70;;
2404;SDS011;1213;43.206;27.922;2023-05-29T09:41:29;37.60;;;26.00;;
2404;SDS011;1213;43.206;27.922;2023-05-29T09:43:56;11.80;;;8.90;;
2404;SDS011;1213;43.206;27.922;2023-05-29T09:46:21;12.73;;;9.60;;
2404;SDS011;1213;43.206;27.922;2023-05-29T09:48:47;6.63;;;6.00;;
2404;SDS011;1213;43.206;27.922;2023-05-29T09:51:20;8.20;;;6.47;;
2404;SDS011;1213;43.206;27.922;2023-05-29T09:53:46;7.23;;;6.50;;
2404;SDS011;1213;43.206;27.922;2023-05-29T09:56:12;8.43;;;6.80;;
2404;SDS011;1213;43.206;27.922;2023-05-29T09:58:40;8.77;;;7.17;;
2404;SDS011;1213;43.206;27.922;2023-05-29T10:01:11;8.87;;;7.53;;
2404;SDS011;1213;43.206;27.922;2023-05-29T10:03:36;7.20;;;6.50;;
2404;SDS011;1213;43.206;27.922;2023-05-29T10:06:01;8.10;;;6.73;;
2404;SDS011;1213;43.206;27.922;2023-05-29T10:08:27;8.03;;;5.73;;
2404;SDS011;1213;43.206;27.922;2023-05-29T10:11:03;9.07;;;6.53;;
2404;SDS011;1213;43.206;27.922;2023-05-29T10:13:36;7.23;;;6.23;;
2404;SDS011;1213;43.206;27.922;2023-05-29T10:16:03;9.37;;;8.30;;
2404;SDS011;1213;43.206;27.922;2023-05-29T10:18:38;6.90;;;6.00;;
2404;SDS011;1213;43.206;27.922;2023-05-29T10:21:07;9.20;;;7.07;;
2404;SDS011;1213;43.206;27.922;2023-05-29T10:23:32;9.40;;;7.90;;
2404;SDS011;1213;43.206;27.922;2023-05-29T10:26:03;8.70;;;7.50;;
2404;SDS011;1213;43.206;27.922;2023-05-29T10:28:32;10.67;;;7.63;;
2404;SDS011;1213;43.206;27.922;2023-05-29T10:31:02;9.27;;;8.20;;
2404;SDS011;1213;43.206;27.922;2023-05-29T10:36:13;10.93;;;8.00;;
2404;SDS011;1213;43.206;27.922;2023-05-29T10:38:40;12.50;;;9.23;;
2404;SDS011;1213;43.206;27.922;2023-05-29T10:43:51;10.20;;;8.73;;
2404;SDS011;1213;43.206;27.922;2023-05-29T10:46:16;10.97;;;9.10;;
2404;SDS011;1213;43.206;27.922;2023-05-29T10:48:42;12.13;;;9.87;;
2404;SDS011;1213;43.206;27.922;2023-05-29T10:51:08;14.83;;;8.60;;
2404;SDS011;1213;43.206;27.922;2023-05-29T10:53:34;11.57;;;8.30;;
2404;SDS011;1213;43.206;27.922;2023-05-29T10:55:59;12.60;;;9.33;;
2404;SDS011;1213;43.206;27.922;2023-05-29T10:58:26;13.57;;;9.93;;
2404;SDS011;1213;43.206;27.922;2023-05-29T11:00:52;14.97;;;10.30;;
2404;SDS011;1213;43.206;27.922;2023-05-29T11:11:29;10.17;;;8.80;;
2404;SDS011;1213;43.206;27.922;2023-05-29T11:13:57;10.63;;;9.47;;
2404;SDS011;1213;43.206;27.922;2023-05-29T11:18:56;11.60;;;9.33;;
2404;SDS011;1213;43.206;27.922;2023-05-29T11:23:47;8.90;;;7.40;;
2404;SDS011;1213;43.206;27.922;2023-05-29T11:26:15;6.40;;;5.80;;
2404;SDS011;1213;43.206;27.922;2023-05-29T11:28:41;5.77;;;5.17;;
2404;SDS011;1213;43.206;27.922;2023-05-29T11:31:10;5.27;;;4.77;;
2404;SDS011;1213;43.206;27.922;2023-05-29T11:33:35;4.80;;;4.40;;
2404;SDS011;1213;43.206;27.922;2023-05-29T11:36:04;4.97;;;4.47;;
2404;SDS011;1213;43.206;27.922;2023-05-29T11:38:31;5.60;;;4.90;;
2404;SDS011;1213;43.206;27.922;2023-05-29T11:40:57;4.10;;;3.70;;
2404;SDS011;1213;43.206;27.922;2023-05-29T11:43:25;4.20;;;3.43;;
2404;SDS011;1213;43.206;27.922;2023-05-29T11:45:50;5.27;;;3.60;;
2404;SDS011;1213;43.206;27.922;2023-05-29T11:48:15;4.27;;;3.87;;
2404;SDS011;1213;43.206;27.922;2023-05-29T11:50:41;3.90;;;2.87;;
2404;SDS011;1213;43.206;27.922;2023-05-29T11:53:06;2.50;;;2.40;;
2404;SDS011;1213;43.206;27.922;2023-05-29T11:55:32;3.43;;;3.13;;
2404;SDS011;1213;43.206;27.922;2023-05-29T11:58:03;5.50;;;2.50;;
2404;SDS011;1213;43.206;27.922;2023-05-29T12:00:35;2.73;;;2.53;;
2404;SDS011;1213;43.206;27.922;2023-05-29T12:03:01;2.63;;;2.43;;
2404;SDS011;1213;43.206;27.922;2023-05-29T12:05:32;3.67;;;3.27;;
2404;SDS011;1213;43.206;27.922;2023-05-29T12:08:10;3.97;;;3.67;;
2404;SDS011;1213;43.206;27.922;2023-05-29T12:10:35;8.23;;;3.30;;
2404;SDS011;1213;43.206;27.922;2023-05-29T12:13:00;3.80;;;2.60;;
2404;SDS011;1213;43.206;27.922;2023-05-29T12:15:26;3.40;;;3.10;;
2404;SDS011;1213;43.206;27.922;2023-05-29T12:17:53;4.03;;;3.73;;
2404;SDS011;1213;43.206;27.922;2023-05-29T12:20:19;2.87;;;2.63;;
2404;SDS011;1213;43.206;27.922;2023-05-29T12:22:47;3.30;;;3.00;;
2404;SDS011;1213;43.206;27.922;2023-05-29T12:25:13;4.63;;;4.23;;
2404;SDS011;1213;43.206;27.922;2023-05-29T12:27:39;3.60;;;3.00;;
2404;SDS011;1213;43.206;27.922;2023-05-29T12:30:11;4.10;;;3.30;;
2404;SDS011;1213;43.206;27.922;2023-05-29T12:32:39;3.97;;;3.57;;
2404;SDS011;1213;43.206;27.922;2023-05-29T12:35:12;3.43;;;3.13;;
2404;SDS011;1213;43.206;27.922;2023-05-29T12:40:18;4.30;;;3.90;;
2404;SDS011;1213;43.206;27.922;2023-05-29T12:42:45;3.57;;;3.27;;
2404;SDS011;1213;43.206;27.922;2023-05-29T12:45:10;4.37;;;3.97;;
2404;SDS011;1213;43.206;27.922;2023-05-29T12:47:36;3.57;;;3.27;;
2404;SDS011;1213;43.206;27.922;2023-05-29T12:50:20;3.67;;;3.37;;
2404;SDS011;1213;43.206;27.922;2023-05-29T12:52:52;3.03;;;2.80;;
2404;SDS011;1213;43.206;27.922;2023-05-29T12:55:18;4.97;;;4.47;;
2404;SDS011;1213;43.206;27.922;2023-05-29T12:57:43;4.17;;;3.30;;
2404;SDS011;1213;43.206;27.922;2023-05-29T13:00:11;4.03;;;3.67;;
2404;SDS011;1213;43.206;27.922;2023-05-29T13:02:36;3.70;;;3.40;;
2404;SDS011;1213;43.206;27.922;2023-05-29T13:05:01;3.97;;;3.37;;
2404;SDS011;1213;43.206;27.922;2023-05-29T13:07:26;4.80;;;3.13;;
2404;SDS011;1213;43.206;27.922;2023-05-29T13:09:53;4.27;;;3.80;;
2404;SDS011;1213;43.206;27.922;2023-05-29T13:12:18;6.03;;;2.93;;
2404;SDS011;1213;43.206;27.922;2023-05-29T13:14:43;6.07;;;3.77;;
2404;SDS011;1213;43.206;27.922;2023-05-29T13:17:08;5.67;;;4.80;;
2404;SDS011;1213;43.206;27.922;2023-05-29T13:19:34;4.23;;;3.80;;
2404;SDS011;1213;43.206;27.922;2023-05-29T13:21:59;6.27;;;4.13;;
2404;SDS011;1213;43.206;27.922;2023-05-29T13:24:24;7.20;;;4.33;;
2404;SDS011;1213;43.206;27.922;2023-05-29T13:26:49;4.00;;;3.60;;
2404;SDS011;1213;43.206;27.922;2023-05-29T13:29:15;5.13;;;4.63;;
2404;SDS011;1213;43.206;27.922;2023-05-29T13:31:41;4.67;;;4.27;;
2404;SDS011;1213;43.206;27.922;2023-05-29T13:34:06;4.40;;;4.00;;
2404;SDS011;1213;43.206;27.922;2023-05-29T13:36:31;4.40;;;3.93;;
2404;SDS011;1213;43.206;27.922;2023-05-29T13:38:56;4.30;;;3.90;;
2404;SDS011;1213;43.206;27.922;2023-05-29T13:41:22;7.57;;;4.30;;
2404;SDS011;1213;43.206;27.922;2023-05-29T13:43:47;6.70;;;4.70;;
2404;SDS011;1213;43.206;27.922;2023-05-29T13:46:12;4.07;;;3.63;;
2404;SDS011;1213;43.206;27.922;2023-05-29T13:48:38;13.30;;;3.70;;
2404;SDS011;1213;43.206;27.922;2023-05-29T13:51:03;5.90;;;4.80;;
2404;SDS011;1213;43.206;27.922;2023-05-29T13:53:28;13.53;;;10.83;;
2404;SDS011;1213;43.206;27.922;2023-05-29T13:55:53;5.23;;;4.33;;
2404;SDS011;1213;43.206;27.922;2023-05-29T13:58:18;6.50;;;4.40;;
2404;SDS011;1213;43.206;27.922;2023-05-29T14:00:45;6.10;;;4.87;;
2404;SDS011;1213;43.206;27.922;2023-05-29T14:03:11;5.17;;;4.67;;
2404;SDS011;1213;43.206;27.922;2023-05-29T14:05:36;5.10;;;4.60;;
2404;SDS011;1213;43.206;27.922;2023-05-29T14:08:01;5.00;;;4.50;;
2404;SDS011;1213;43.206;27.922;2023-05-29T14:10:27;11.27;;;4.57;;
2404;SDS011;1213;43.206;27.922;2023-05-29T14:12:52;5.73;;;5.10;;
2404;SDS011;1213;43.206;27.922;2023-05-29T14:15:17;5.30;;;4.80;;
2404;SDS011;1213;43.206;27.922;2023-05-29T14:17:42;6.17;;;5.23;;
2404;SDS011;1213;43.206;27.922;2023-05-29T14:20:08;6.20;;;5.60;;
2404;SDS011;1213;43.206;27.922;2023-05-29T14:22:33;5.67;;;4.70;;
2404;SDS011;1213;43.206;27.922;2023-05-29T14:24:59;5.20;;;4.80;;
2404;SDS011;1213;43.206;27.922;2023-05-29T14:27:25;5.20;;;4.53;;
2404;SDS011;1213;43.206;27.922;2023-05-29T14:29:51;14.10;;;6.10;;
2404;SDS011;1213;43.206;27.922;2023-05-29T14:32:16;6.80;;;4.80;;
2404;SDS011;1213;43.206;27.922;2023-05-29T14:34:41;8.87;;;4.93;;
2404;SDS011;1213;43.206;27.922;2023-05-29T14:37:06;5.37;;;4.80;;
2404;SDS011;1213;43.206;27.922;2023-05-29T14:39:32;5.60;;;4.90;;
2404;SDS011;1213;43.206;27.922;2023-05-29T14:41:57;6.10;;;4.90;;
2404;SDS011;1213;43.206;27.922;2023-05-29T14:44:22;12.07;;;9.50;;
2404;SDS011;1213;43.206;27.922;2023-05-29T14:46:48;8.63;;;5.40;;
2404;SDS011;1213;43.206;27.922;2023-05-29T14:49:13;4.87;;;4.47;;
2404;SDS011;1213;43.206;27.922;2023-05-29T14:51:38;9.40;;;5.50;;
2404;SDS011;1213;43.206;27.922;2023-05-29T14:54:04;8.83;;;5.57;;
2404;SDS011;1213;43.206;27.922;2023-05-29T14:56:29;9.60;;;6.10;;
2404;SDS011;1213;43.206;27.922;2023-05-29T14:58:54;9.33;;;5.87;;
2404;SDS011;1213;43.206;27.922;2023-05-29T15:01:20;13.73;;;4.57;;
2404;SDS011;1213;43.206;27.922;2023-05-29T15:03:45;8.80;;;7.30;;
2404;SDS011;1213;43.206;27.922;2023-05-29T15:06:10;6.20;;;5.33;;
2404;SDS011;1213;43.206;27.922;2023-05-29T15:08:37;4.77;;;4.33;;
2404;SDS011;1213;43.206;27.922;2023-05-29T15:11:02;7.10;;;4.67;;
2404;SDS011;1213;43.206;27.922;2023-05-29T15:13:30;5.70;;;5.10;;